sensor_id;sensor_type;location;lat;lon;timestamp;P1;durP1;ratioP1;P2;durP2;ratioP2
3341;SDS011;1684;50.748;6.154;2022-12-10T00:00:05;39.53;;;19.90;;
3341;SDS011;1684;50.748;6.154;2022-12-10T00:02:34;40.33;;;21.13;;
3341;SDS011;1684;50.748;6.154;2022-12-10T00:05:03;40.00;;;20.20;;
3341;SDS011;1684;50.748;6.154;2022-12-10T00:07:31;37.47;;;19.97;;
3341;SDS011;1684;50.748;6.154;2022-12-10T00:10:01;33.10;;;19.50;;
3341;SDS011;1684;50.748;6.154;2022-12-10T00:12:36;34.13;;;19.90;;
3341;SDS011;1684;50.748;6.154;2022-12-10T00:15:04;38.97;;;20.40;;
3341;SDS011;1684;50.748;6.154;2022-12-10T00:17:35;37.40;;;21.53;;
3341;SDS011;1684;50.748;6.154;2022-12-10T00:20:04;36.20;;;18.60;;
3341;SDS011;1684;50.748;6.154;2022-12-10T00:22:33;36.80;;;19.40;;
3341;SDS011;1684;50.748;6.154;2022-12-10T00:25:03;33.73;;;18.73;;
3341;SDS011;1684;50.748;6.154;2022-12-10T00:27:32;40.83;;;20.37;;
3341;SDS011;1684;50.748;6.154;2022-12-10T00:30:00;40.97;;;20.37;;
3341;SDS011;1684;50.748;6.154;2022-12-10T00:32:28;37.07;;;20.30;;
3341;SDS011;1684;50.748;6.154;2022-12-10T00:34:57;36.63;;;20.63;;
3341;SDS011;1684;50.748;6.154;2022-12-10T00:37:25;42.27;;;20.90;;
3341;SDS011;1684;50.748;6.154;2022-12-10T00:39:53;30.87;;;17.93;;
3341;SDS011;1684;50.748;6.154;2022-12-10T00:42:23;41.77;;;19.50;;
3341;SDS011;1684;50.748;6.154;2022-12-10T00:44:51;36.60;;;18.57;;
3341;SDS011;1684;50.748;6.154;2022-12-10T00:47:20;42.60;;;20.23;;
3341;SDS011;1684;50.748;6.154;2022-12-10T00:49:48;32.20;;;17.00;;
3341;SDS011;1684;50.748;6.154;2022-12-10T00:52:16;20.40;;;14.27;;
3341;SDS011;1684;50.748;6.154;2022-12-10T00:54:45;33.77;;;19.60;;
3341;SDS011;1684;50.748;6.154;2022-12-10T00:57:13;33.67;;;18.83;;
3341;SDS011;1684;50.748;6.154;2022-12-10T00:59:43;39.57;;;20.77;;
3341;SDS011;1684;50.748;6.154;2022-12-10T01:02:11;35.40;;;19.87;;
3341;SDS011;1684;50.748;6.154;2022-12-10T01:04:40;39.03;;;19.30;;
3341;SDS011;1684;50.748;6.154;2022-12-10T01:07:09;40.40;;;20.23;;
3341;SDS011;1684;50.748;6.154;2022-12-10T01:09:37;37.87;;;19.60;;
3341;SDS011;1684;50.748;6.154;2022-12-10T01:12:06;34.33;;;20.87;;
3341;SDS011;1684;50.748;6.154;2022-12-10T01:14:36;39.10;;;20.37;;
3341;SDS011;1684;50.748;6.154;2022-12-10T01:17:05;38.77;;;20.40;;
3341;SDS011;1684;50.748;6.154;2022-12-10T01:19:34;39.17;;;21.83;;
3341;SDS011;1684;50.748;6.154;2022-12-10T01:22:02;38.63;;;22.97;;
3341;SDS011;1684;50.748;6.154;2022-12-10T01:24:31;34.63;;;20.83;;
3341;SDS011;1684;50.748;6.154;2022-12-10T01:27:00;47.07;;;21.93;;
3341;SDS011;1684;50.748;6.154;2022-12-10T01:29:29;43.90;;;21.87;;
3341;SDS011;1684;50.748;6.154;2022-12-10T01:31:58;43.13;;;20.17;;
3341;SDS011;1684;50.748;6.154;2022-12-10T01:34:28;45.83;;;23.10;;
3341;SDS011;1684;50.748;6.154;2022-12-10T01:36:56;48.50;;;23.53;;
3341;SDS011;1684;50.748;6.154;2022-12-10T01:39:24;40.17;;;23.53;;
3341;SDS011;1684;50.748;6.154;2022-12-10T01:41:53;44.83;;;21.77;;
3341;SDS011;1684;50.748;6.154;2022-12-10T01:47:08;40.17;;;20.37;;
3341;SDS011;1684;50.748;6.154;2022-12-10T01:49:39;48.37;;;25.37;;
3341;SDS011;1684;50.748;6.154;2022-12-10T01:52:10;53.63;;;25.60;;
3341;SDS011;1684;50.748;6.154;2022-12-10T01:54:39;43.30;;;21.37;;
3341;SDS011;1684;50.748;6.154;2022-12-10T01:57:08;37.63;;;19.00;;
3341;SDS011;1684;50.748;6.154;2022-12-10T01:59:38;46.73;;;18.90;;
3341;SDS011;1684;50.748;6.154;2022-12-10T02:02:08;29.80;;;15.97;;
3341;SDS011;1684;50.748;6.154;2022-12-10T02:04:41;40.67;;;17.67;;
3341;SDS011;1684;50.748;6.154;2022-12-10T02:07:14;45.73;;;18.80;;
3341;SDS011;1684;50.748;6.154;2022-12-10T02:09:48;53.53;;;21.30;;
3341;SDS011;1684;50.748;6.154;2022-12-10T02:12:20;41.10;;;20.10;;
3341;SDS011;1684;50.748;6.154;2022-12-10T02:14:51;38.13;;;19.20;;
3341;SDS011;1684;50.748;6.154;2022-12-10T02:17:24;42.37;;;20.37;;
3341;SDS011;1684;50.748;6.154;2022-12-10T02:19:58;39.70;;;19.27;;
3341;SDS011;1684;50.748;6.154;2022-12-10T02:22:29;43.33;;;19.70;;
3341;SDS011;1684;50.748;6.154;2022-12-10T02:25:00;52.80;;;21.30;;
3341;SDS011;1684;50.748;6.154;2022-12-10T02:27:44;44.77;;;22.20;;
3341;SDS011;1684;50.748;6.154;2022-12-10T02:30:16;41.23;;;18.63;;
3341;SDS011;1684;50.748;6.154;2022-12-10T02:32:45;33.20;;;16.73;;
3341;SDS011;1684;50.748;6.154;2022-12-10T02:35:16;43.63;;;19.17;;
3341;SDS011;1684;50.748;6.154;2022-12-10T02:38:07;39.43;;;18.80;;
3341;SDS011;1684;50.748;6.154;2022-12-10T02:40:37;54.17;;;19.77;;
3341;SDS011;1684;50.748;6.154;2022-12-10T02:43:07;37.33;;;17.80;;
3341;SDS011;1684;50.748;6.154;2022-12-10T02:45:38;42.20;;;18.80;;
3341;SDS011;1684;50.748;6.154;2022-12-10T02:48:07;39.03;;;17.97;;
3341;SDS011;1684;50.748;6.154;2022-12-10T02:50:37;35.37;;;19.07;;
3341;SDS011;1684;50.748;6.154;2022-12-10T02:53:05;34.27;;;17.20;;
3341;SDS011;1684;50.748;6.154;2022-12-10T02:55:37;38.50;;;18.83;;
3341;SDS011;1684;50.748;6.154;2022-12-10T02:58:12;38.37;;;19.53;;
3341;SDS011;1684;50.748;6.154;2022-12-10T03:00:46;43.53;;;18.80;;
3341;SDS011;1684;50.748;6.154;2022-12-10T03:03:23;41.33;;;20.77;;
3341;SDS011;1684;50.748;6.154;2022-12-10T03:05:55;36.27;;;18.87;;
3341;SDS011;1684;50.748;6.154;2022-12-10T03:08:27;39.20;;;20.60;;
3341;SDS011;1684;50.748;6.154;2022-12-10T03:10:57;40.30;;;18.17;;
3341;SDS011;1684;50.748;6.154;2022-12-10T03:13:29;52.23;;;20.20;;
3341;SDS011;1684;50.748;6.154;2022-12-10T03:16:01;42.47;;;20.10;;
3341;SDS011;1684;50.748;6.154;2022-12-10T03:18:31;41.17;;;21.67;;
3341;SDS011;1684;50.748;6.154;2022-12-10T03:21:01;42.17;;;22.87;;
3341;SDS011;1684;50.748;6.154;2022-12-10T03:23:30;42.10;;;21.47;;
3341;SDS011;1684;50.748;6.154;2022-12-10T03:26:01;49.03;;;22.50;;
3341;SDS011;1684;50.748;6.154;2022-12-10T03:28:30;44.10;;;20.63;;
3341;SDS011;1684;50.748;6.154;2022-12-10T03:31:01;43.17;;;22.27;;
3341;SDS011;1684;50.748;6.154;2022-12-10T03:33:30;44.93;;;22.37;;
3341;SDS011;1684;50.748;6.154;2022-12-10T03:35:58;56.80;;;24.57;;
3341;SDS011;1684;50.748;6.154;2022-12-10T03:38:27;50.17;;;20.23;;
3341;SDS011;1684;50.748;6.154;2022-12-10T03:40:56;52.57;;;23.20;;
3341;SDS011;1684;50.748;6.154;2022-12-10T03:43:24;57.43;;;23.90;;
3341;SDS011;1684;50.748;6.154;2022-12-10T03:45:52;45.20;;;20.93;;
3341;SDS011;1684;50.748;6.154;2022-12-10T03:48:22;56.30;;;24.07;;
3341;SDS011;1684;50.748;6.154;2022-12-10T03:50:51;63.30;;;25.73;;
3341;SDS011;1684;50.748;6.154;2022-12-10T03:53:20;60.50;;;24.30;;
3341;SDS011;1684;50.748;6.154;2022-12-10T03:55:48;51.30;;;25.47;;
3341;SDS011;1684;50.748;6.154;2022-12-10T03:58:16;56.87;;;23.83;;
3341;SDS011;1684;50.748;6.154;2022-12-10T04:00:45;53.97;;;25.40;;
3341;SDS011;1684;50.748;6.154;2022-12-10T04:03:14;64.93;;;24.07;;
3341;SDS011;1684;50.748;6.154;2022-12-10T04:05:44;62.37;;;24.37;;
3341;SDS011;1684;50.748;6.154;2022-12-10T04:08:12;44.37;;;23.47;;
3341;SDS011;1684;50.748;6.154;2022-12-10T04:10:40;58.07;;;24.27;;
3341;SDS011;1684;50.748;6.154;2022-12-10T04:13:08;53.03;;;20.90;;
3341;SDS011;1684;50.748;6.154;2022-12-10T04:15:55;47.23;;;22.30;;
3341;SDS011;1684;50.748;6.154;2022-12-10T04:18:42;33.70;;;18.00;;
3341;SDS011;1684;50.748;6.154;2022-12-10T04:21:12;35.80;;;17.90;;
3341;SDS011;1684;50.748;6.154;2022-12-10T04:23:58;55.90;;;25.07;;
3341;SDS011;1684;50.748;6.154;2022-12-10T04:26:44;51.87;;;24.80;;
3341;SDS011;1684;50.748;6.154;2022-12-10T04:29:21;52.80;;;23.10;;
3341;SDS011;1684;50.748;6.154;2022-12-10T04:31:49;42.87;;;19.47;;
3341;SDS011;1684;50.748;6.154;2022-12-10T04:34:18;50.73;;;22.40;;
3341;SDS011;1684;50.748;6.154;2022-12-10T04:36:48;44.80;;;21.53;;
3341;SDS011;1684;50.748;6.154;2022-12-10T04:39:16;33.50;;;16.53;;
3341;SDS011;1684;50.748;6.154;2022-12-10T04:41:46;46.57;;;22.43;;
3341;SDS011;1684;50.748;6.154;2022-12-10T04:44:14;49.83;;;25.00;;
3341;SDS011;1684;50.748;6.154;2022-12-10T04:46:43;60.07;;;28.50;;
3341;SDS011;1684;50.748;6.154;2022-12-10T04:49:12;50.53;;;22.67;;
3341;SDS011;1684;50.748;6.154;2022-12-10T04:51:40;57.67;;;23.10;;
3341;SDS011;1684;50.748;6.154;2022-12-10T04:54:10;51.53;;;24.23;;
3341;SDS011;1684;50.748;6.154;2022-12-10T04:56:45;41.90;;;20.80;;
3341;SDS011;1684;50.748;6.154;2022-12-10T04:59:14;61.23;;;26.30;;
3341;SDS011;1684;50.748;6.154;2022-12-10T05:01:58;43.67;;;22.50;;
3341;SDS011;1684;50.748;6.154;2022-12-10T05:04:26;56.60;;;25.60;;
3341;SDS011;1684;50.748;6.154;2022-12-10T05:06:55;44.40;;;21.53;;
3341;SDS011;1684;50.748;6.154;2022-12-10T05:09:24;50.20;;;23.60;;
3341;SDS011;1684;50.748;6.154;2022-12-10T05:11:53;52.87;;;26.30;;
3341;SDS011;1684;50.748;6.154;2022-12-10T05:14:21;54.10;;;24.43;;
3341;SDS011;1684;50.748;6.154;2022-12-10T05:16:50;38.37;;;19.40;;
3341;SDS011;1684;50.748;6.154;2022-12-10T05:19:18;41.67;;;20.43;;
3341;SDS011;1684;50.748;6.154;2022-12-10T05:21:48;34.80;;;18.07;;
3341;SDS011;1684;50.748;6.154;2022-12-10T05:24:35;34.30;;;16.50;;
3341;SDS011;1684;50.748;6.154;2022-12-10T05:27:04;52.13;;;23.37;;
3341;SDS011;1684;50.748;6.154;2022-12-10T05:29:32;60.70;;;28.07;;
3341;SDS011;1684;50.748;6.154;2022-12-10T05:32:02;60.40;;;28.23;;
3341;SDS011;1684;50.748;6.154;2022-12-10T05:34:31;65.93;;;27.30;;
3341;SDS011;1684;50.748;6.154;2022-12-10T05:36:59;56.27;;;26.40;;
3341;SDS011;1684;50.748;6.154;2022-12-10T05:39:27;56.53;;;23.73;;
3341;SDS011;1684;50.748;6.154;2022-12-10T05:41:57;59.10;;;25.63;;
3341;SDS011;1684;50.748;6.154;2022-12-10T05:44:25;60.93;;;27.97;;
3341;SDS011;1684;50.748;6.154;2022-12-10T05:46:54;62.07;;;27.77;;
3341;SDS011;1684;50.748;6.154;2022-12-10T05:49:23;65.37;;;27.93;;
3341;SDS011;1684;50.748;6.154;2022-12-10T05:51:54;56.97;;;27.40;;
3341;SDS011;1684;50.748;6.154;2022-12-10T05:54:23;52.23;;;26.93;;
3341;SDS011;1684;50.748;6.154;2022-12-10T05:56:51;58.30;;;26.60;;
3341;SDS011;1684;50.748;6.154;2022-12-10T05:59:22;68.07;;;29.23;;
3341;SDS011;1684;50.748;6.154;2022-12-10T06:01:50;51.40;;;25.37;;
3341;SDS011;1684;50.748;6.154;2022-12-10T06:04:19;64.60;;;26.43;;
3341;SDS011;1684;50.748;6.154;2022-12-10T06:06:48;59.57;;;28.70;;
3341;SDS011;1684;50.748;6.154;2022-12-10T06:09:16;63.53;;;27.03;;
3341;SDS011;1684;50.748;6.154;2022-12-10T06:11:44;60.90;;;26.73;;
3341;SDS011;1684;50.748;6.154;2022-12-10T06:14:14;54.80;;;24.60;;
3341;SDS011;1684;50.748;6.154;2022-12-10T06:16:43;55.87;;;26.03;;
3341;SDS011;1684;50.748;6.154;2022-12-10T06:19:12;54.23;;;25.13;;
3341;SDS011;1684;50.748;6.154;2022-12-10T06:21:40;54.83;;;26.30;;
3341;SDS011;1684;50.748;6.154;2022-12-10T06:24:08;52.90;;;25.27;;
3341;SDS011;1684;50.748;6.154;2022-12-10T06:26:37;50.87;;;26.60;;
3341;SDS011;1684;50.748;6.154;2022-12-10T06:29:05;54.93;;;25.80;;
3341;SDS011;1684;50.748;6.154;2022-12-10T06:31:34;55.20;;;23.47;;
3341;SDS011;1684;50.748;6.154;2022-12-10T06:34:04;51.57;;;25.17;;
3341;SDS011;1684;50.748;6.154;2022-12-10T06:36:32;65.20;;;25.73;;
3341;SDS011;1684;50.748;6.154;2022-12-10T06:39:01;58.73;;;25.67;;
3341;SDS011;1684;50.748;6.154;2022-12-10T06:41:29;53.37;;;23.80;;
3341;SDS011;1684;50.748;6.154;2022-12-10T06:43:57;50.97;;;25.20;;
3341;SDS011;1684;50.748;6.154;2022-12-10T06:46:27;50.50;;;25.90;;
3341;SDS011;1684;50.748;6.154;2022-12-10T06:48:55;54.17;;;26.43;;
3341;SDS011;1684;50.748;6.154;2022-12-10T06:51:25;55.40;;;25.97;;
3341;SDS011;1684;50.748;6.154;2022-12-10T06:53:53;48.33;;;24.73;;
3341;SDS011;1684;50.748;6.154;2022-12-10T06:56:21;48.53;;;24.07;;
3341;SDS011;1684;50.748;6.154;2022-12-10T06:58:50;61.87;;;24.87;;
3341;SDS011;1684;50.748;6.154;2022-12-10T07:01:19;51.23;;;26.10;;
3341;SDS011;1684;50.748;6.154;2022-12-10T07:03:49;55.20;;;23.53;;
3341;SDS011;1684;50.748;6.154;2022-12-10T07:06:17;58.37;;;27.07;;
3341;SDS011;1684;50.748;6.154;2022-12-10T07:08:47;51.30;;;24.83;;
3341;SDS011;1684;50.748;6.154;2022-12-10T07:11:17;53.20;;;24.97;;
3341;SDS011;1684;50.748;6.154;2022-12-10T07:13:46;51.83;;;22.90;;
3341;SDS011;1684;50.748;6.154;2022-12-10T07:16:14;57.67;;;25.10;;
3341;SDS011;1684;50.748;6.154;2022-12-10T07:18:44;43.23;;;22.97;;
3341;SDS011;1684;50.748;6.154;2022-12-10T07:21:18;52.67;;;23.80;;
3341;SDS011;1684;50.748;6.154;2022-12-10T07:23:48;52.03;;;24.80;;
3341;SDS011;1684;50.748;6.154;2022-12-10T07:26:17;45.77;;;20.83;;
3341;SDS011;1684;50.748;6.154;2022-12-10T07:28:46;60.87;;;25.37;;
3341;SDS011;1684;50.748;6.154;2022-12-10T07:31:19;42.00;;;21.60;;
3341;SDS011;1684;50.748;6.154;2022-12-10T07:33:49;38.87;;;19.90;;
3341;SDS011;1684;50.748;6.154;2022-12-10T07:36:18;49.20;;;21.03;;
3341;SDS011;1684;50.748;6.154;2022-12-10T07:38:46;44.50;;;20.57;;
3341;SDS011;1684;50.748;6.154;2022-12-10T07:41:17;58.53;;;22.30;;
3341;SDS011;1684;50.748;6.154;2022-12-10T07:43:47;56.63;;;23.33;;
3341;SDS011;1684;50.748;6.154;2022-12-10T07:46:16;46.67;;;23.10;;
3341;SDS011;1684;50.748;6.154;2022-12-10T07:48:46;50.67;;;21.30;;
3341;SDS011;1684;50.748;6.154;2022-12-10T07:51:15;47.07;;;20.30;;
3341;SDS011;1684;50.748;6.154;2022-12-10T07:53:44;52.97;;;22.70;;
3341;SDS011;1684;50.748;6.154;2022-12-10T07:56:12;44.53;;;21.60;;
3341;SDS011;1684;50.748;6.154;2022-12-10T07:58:42;53.87;;;24.27;;
3341;SDS011;1684;50.748;6.154;2022-12-10T08:01:11;49.73;;;22.37;;
3341;SDS011;1684;50.748;6.154;2022-12-10T08:03:40;50.13;;;20.77;;
3341;SDS011;1684;50.748;6.154;2022-12-10T08:06:09;47.10;;;23.47;;
3341;SDS011;1684;50.748;6.154;2022-12-10T08:08:38;50.73;;;22.40;;
3341;SDS011;1684;50.748;6.154;2022-12-10T08:11:06;43.93;;;21.10;;
3341;SDS011;1684;50.748;6.154;2022-12-10T08:13:35;54.90;;;23.30;;
3341;SDS011;1684;50.748;6.154;2022-12-10T08:16:05;45.53;;;19.47;;
3341;SDS011;1684;50.748;6.154;2022-12-10T08:18:34;51.23;;;24.10;;
3341;SDS011;1684;50.748;6.154;2022-12-10T08:21:04;53.90;;;22.57;;
3341;SDS011;1684;50.748;6.154;2022-12-10T08:23:34;40.47;;;20.20;;
3341;SDS011;1684;50.748;6.154;2022-12-10T08:26:03;46.70;;;21.57;;
3341;SDS011;1684;50.748;6.154;2022-12-10T08:28:32;44.23;;;23.20;;
3341;SDS011;1684;50.748;6.154;2022-12-10T08:31:01;46.93;;;21.50;;
3341;SDS011;1684;50.748;6.154;2022-12-10T08:33:30;42.00;;;20.60;;
3341;SDS011;1684;50.748;6.154;2022-12-10T08:36:00;58.90;;;20.70;;
3341;SDS011;1684;50.748;6.154;2022-12-10T08:38:29;52.73;;;22.10;;
3341;SDS011;1684;50.748;6.154;2022-12-10T08:40:57;42.13;;;19.70;;
3341;SDS011;1684;50.748;6.154;2022-12-10T08:43:26;49.87;;;23.30;;
3341;SDS011;1684;50.748;6.154;2022-12-10T08:45:54;46.67;;;20.83;;
3341;SDS011;1684;50.748;6.154;2022-12-10T08:48:26;45.07;;;21.70;;
3341;SDS011;1684;50.748;6.154;2022-12-10T08:50:56;45.30;;;21.40;;
3341;SDS011;1684;50.748;6.154;2022-12-10T08:53:25;47.00;;;21.10;;
3341;SDS011;1684;50.748;6.154;2022-12-10T08:55:53;47.13;;;24.13;;
3341;SDS011;1684;50.748;6.154;2022-12-10T08:58:21;39.07;;;19.80;;
3341;SDS011;1684;50.748;6.154;2022-12-10T09:00:50;48.43;;;22.70;;
3341;SDS011;1684;50.748;6.154;2022-12-10T09:03:18;48.20;;;19.63;;
3341;SDS011;1684;50.748;6.154;2022-12-10T09:05:46;47.50;;;21.77;;
3341;SDS011;1684;50.748;6.154;2022-12-10T09:08:16;43.70;;;21.37;;
3341;SDS011;1684;50.748;6.154;2022-12-10T09:10:46;44.80;;;20.60;;
3341;SDS011;1684;50.748;6.154;2022-12-10T09:13:14;43.53;;;18.40;;
3341;SDS011;1684;50.748;6.154;2022-12-10T09:15:48;50.73;;;21.07;;
3341;SDS011;1684;50.748;6.154;2022-12-10T09:18:16;41.60;;;19.93;;
3341;SDS011;1684;50.748;6.154;2022-12-10T09:20:53;41.30;;;18.17;;
3341;SDS011;1684;50.748;6.154;2022-12-10T09:23:23;37.83;;;19.37;;
3341;SDS011;1684;50.748;6.154;2022-12-10T09:25:51;38.40;;;18.93;;
3341;SDS011;1684;50.748;6.154;2022-12-10T09:28:19;39.03;;;19.37;;
3341;SDS011;1684;50.748;6.154;2022-12-10T09:30:54;41.90;;;17.93;;
3341;SDS011;1684;50.748;6.154;2022-12-10T09:33:22;41.10;;;16.87;;
3341;SDS011;1684;50.748;6.154;2022-12-10T09:35:52;39.50;;;17.33;;
3341;SDS011;1684;50.748;6.154;2022-12-10T09:38:20;34.70;;;15.90;;
3341;SDS011;1684;50.748;6.154;2022-12-10T09:40:51;34.97;;;17.00;;
3341;SDS011;1684;50.748;6.154;2022-12-10T09:43:28;34.53;;;18.00;;
3341;SDS011;1684;50.748;6.154;2022-12-10T09:46:02;30.43;;;15.13;;
3341;SDS011;1684;50.748;6.154;2022-12-10T09:48:37;31.53;;;15.37;;
3341;SDS011;1684;50.748;6.154;2022-12-10T09:51:09;37.93;;;17.00;;
3341;SDS011;1684;50.748;6.154;2022-12-10T09:53:40;33.60;;;17.70;;
3341;SDS011;1684;50.748;6.154;2022-12-10T09:56:13;36.40;;;15.10;;
3341;SDS011;1684;50.748;6.154;2022-12-10T09:58:44;37.07;;;16.03;;
3341;SDS011;1684;50.748;6.154;2022-12-10T10:01:13;35.67;;;16.50;;
3341;SDS011;1684;50.748;6.154;2022-12-10T10:03:43;35.00;;;15.97;;
3341;SDS011;1684;50.748;6.154;2022-12-10T10:06:14;37.83;;;16.57;;
3341;SDS011;1684;50.748;6.154;2022-12-10T10:08:46;42.73;;;17.20;;
3341;SDS011;1684;50.748;6.154;2022-12-10T10:11:18;43.23;;;19.07;;
3341;SDS011;1684;50.748;6.154;2022-12-10T10:13:49;36.23;;;17.20;;
3341;SDS011;1684;50.748;6.154;2022-12-10T10:16:23;42.20;;;19.73;;
3341;SDS011;1684;50.748;6.154;2022-12-10T10:18:54;36.97;;;19.07;;
3341;SDS011;1684;50.748;6.154;2022-12-10T10:21:23;43.43;;;19.30;;
3341;SDS011;1684;50.748;6.154;2022-12-10T10:23:52;39.27;;;18.27;;
3341;SDS011;1684;50.748;6.154;2022-12-10T10:26:23;43.63;;;18.50;;
3341;SDS011;1684;50.748;6.154;2022-12-10T10:28:52;36.90;;;20.03;;
3341;SDS011;1684;50.748;6.154;2022-12-10T10:31:25;33.53;;;16.73;;
3341;SDS011;1684;50.748;6.154;2022-12-10T10:33:54;33.00;;;18.37;;
3341;SDS011;1684;50.748;6.154;2022-12-10T10:36:24;40.57;;;20.93;;
3341;SDS011;1684;50.748;6.154;2022-12-10T10:38:53;47.03;;;18.07;;
3341;SDS011;1684;50.748;6.154;2022-12-10T10:41:24;40.80;;;19.50;;
3341;SDS011;1684;50.748;6.154;2022-12-10T10:43:58;49.30;;;20.40;;
3341;SDS011;1684;50.748;6.154;2022-12-10T10:46:28;53.80;;;22.50;;
3341;SDS011;1684;50.748;6.154;2022-12-10T10:49:11;51.17;;;20.13;;
3341;SDS011;1684;50.748;6.154;2022-12-10T10:51:41;61.03;;;23.60;;
3341;SDS011;1684;50.748;6.154;2022-12-10T10:54:11;51.70;;;21.00;;
3341;SDS011;1684;50.748;6.154;2022-12-10T10:56:41;59.57;;;23.40;;
3341;SDS011;1684;50.748;6.154;2022-12-10T10:59:20;50.20;;;20.57;;
3341;SDS011;1684;50.748;6.154;2022-12-10T11:01:53;60.80;;;24.27;;
3341;SDS011;1684;50.748;6.154;2022-12-10T11:04:24;50.67;;;22.40;;
3341;SDS011;1684;50.748;6.154;2022-12-10T11:06:53;46.30;;;23.13;;
3341;SDS011;1684;50.748;6.154;2022-12-10T11:09:24;43.53;;;19.30;;
3341;SDS011;1684;50.748;6.154;2022-12-10T11:11:57;40.47;;;18.30;;
3341;SDS011;1684;50.748;6.154;2022-12-10T11:14:27;38.53;;;16.83;;
3341;SDS011;1684;50.748;6.154;2022-12-10T11:17:03;37.23;;;17.87;;
3341;SDS011;1684;50.748;6.154;2022-12-10T11:19:41;38.97;;;17.83;;
3341;SDS011;1684;50.748;6.154;2022-12-10T11:22:17;41.80;;;18.10;;
3341;SDS011;1684;50.748;6.154;2022-12-10T11:24:47;46.23;;;18.83;;
3341;SDS011;1684;50.748;6.154;2022-12-10T11:27:18;42.03;;;17.60;;
3341;SDS011;1684;50.748;6.154;2022-12-10T11:29:49;43.10;;;17.73;;
3341;SDS011;1684;50.748;6.154;2022-12-10T11:32:22;41.43;;;17.70;;
3341;SDS011;1684;50.748;6.154;2022-12-10T11:34:57;37.00;;;17.93;;
3341;SDS011;1684;50.748;6.154;2022-12-10T11:37:30;33.63;;;15.10;;
3341;SDS011;1684;50.748;6.154;2022-12-10T11:40:12;35.20;;;14.80;;
3341;SDS011;1684;50.748;6.154;2022-12-10T11:42:47;34.57;;;16.17;;
3341;SDS011;1684;50.748;6.154;2022-12-10T11:45:20;40.57;;;14.47;;
3341;SDS011;1684;50.748;6.154;2022-12-10T11:47:55;30.27;;;13.70;;
3341;SDS011;1684;50.748;6.154;2022-12-10T11:50:32;28.13;;;13.87;;
3341;SDS011;1684;50.748;6.154;2022-12-10T11:53:08;34.13;;;15.50;;
3341;SDS011;1684;50.748;6.154;2022-12-10T11:55:44;37.30;;;17.17;;
3341;SDS011;1684;50.748;6.154;2022-12-10T11:58:20;33.00;;;13.40;;
3341;SDS011;1684;50.748;6.154;2022-12-10T12:00:59;34.47;;;14.17;;
3341;SDS011;1684;50.748;6.154;2022-12-10T12:03:36;34.90;;;14.93;;
3341;SDS011;1684;50.748;6.154;2022-12-10T12:06:11;28.93;;;12.67;;
3341;SDS011;1684;50.748;6.154;2022-12-10T12:08:45;32.40;;;14.87;;
3341;SDS011;1684;50.748;6.154;2022-12-10T12:11:17;33.87;;;16.10;;
3341;SDS011;1684;50.748;6.154;2022-12-10T12:13:53;28.73;;;14.13;;
3341;SDS011;1684;50.748;6.154;2022-12-10T12:16:24;32.37;;;15.13;;
3341;SDS011;1684;50.748;6.154;2022-12-10T12:18:55;36.33;;;15.43;;
3341;SDS011;1684;50.748;6.154;2022-12-10T12:21:25;33.77;;;14.93;;
3341;SDS011;1684;50.748;6.154;2022-12-10T12:23:54;33.93;;;13.97;;
3341;SDS011;1684;50.748;6.154;2022-12-10T12:26:30;42.00;;;16.40;;
3341;SDS011;1684;50.748;6.154;2022-12-10T12:29:05;30.40;;;14.83;;
3341;SDS011;1684;50.748;6.154;2022-12-10T12:31:38;40.27;;;16.13;;
3341;SDS011;1684;50.748;6.154;2022-12-10T12:34:11;30.50;;;14.63;;
3341;SDS011;1684;50.748;6.154;2022-12-10T12:36:42;38.00;;;18.37;;
3341;SDS011;1684;50.748;6.154;2022-12-10T12:39:14;42.20;;;18.17;;
3341;SDS011;1684;50.748;6.154;2022-12-10T12:41:46;40.93;;;17.20;;
3341;SDS011;1684;50.748;6.154;2022-12-10T12:44:18;40.57;;;18.57;;
3341;SDS011;1684;50.748;6.154;2022-12-10T12:46:50;45.20;;;19.53;;
3341;SDS011;1684;50.748;6.154;2022-12-10T12:49:20;45.67;;;18.07;;
3341;SDS011;1684;50.748;6.154;2022-12-10T12:51:50;48.07;;;19.50;;
3341;SDS011;1684;50.748;6.154;2022-12-10T12:54:20;42.27;;;17.90;;
3341;SDS011;1684;50.748;6.154;2022-12-10T12:56:59;43.70;;;19.33;;
3341;SDS011;1684;50.748;6.154;2022-12-10T12:59:33;43.00;;;17.47;;
3341;SDS011;1684;50.748;6.154;2022-12-10T13:02:08;48.70;;;21.50;;
3341;SDS011;1684;50.748;6.154;2022-12-10T13:04:40;40.73;;;17.07;;
3341;SDS011;1684;50.748;6.154;2022-12-10T13:07:09;39.77;;;17.03;;
3341;SDS011;1684;50.748;6.154;2022-12-10T13:09:42;44.77;;;18.90;;
3341;SDS011;1684;50.748;6.154;2022-12-10T13:12:18;46.87;;;17.43;;
3341;SDS011;1684;50.748;6.154;2022-12-10T13:15:00;41.73;;;17.50;;
3341;SDS011;1684;50.748;6.154;2022-12-10T13:17:31;40.23;;;18.97;;
3341;SDS011;1684;50.748;6.154;2022-12-10T13:22:54;45.37;;;17.73;;
3341;SDS011;1684;50.748;6.154;2022-12-10T13:25:37;44.93;;;19.77;;
3341;SDS011;1684;50.748;6.154;2022-12-10T13:28:16;48.17;;;19.80;;
3341;SDS011;1684;50.748;6.154;2022-12-10T13:30:47;57.00;;;21.33;;
3341;SDS011;1684;50.748;6.154;2022-12-10T13:33:44;39.83;;;19.90;;
3341;SDS011;1684;50.748;6.154;2022-12-10T13:36:13;44.33;;;19.57;;
3341;SDS011;1684;50.748;6.154;2022-12-10T13:38:54;39.90;;;18.43;;
3341;SDS011;1684;50.748;6.154;2022-12-10T13:41:23;42.53;;;17.60;;
3341;SDS011;1684;50.748;6.154;2022-12-10T13:44:24;42.13;;;17.73;;
3341;SDS011;1684;50.748;6.154;2022-12-10T13:46:58;50.50;;;20.80;;
3341;SDS011;1684;50.748;6.154;2022-12-10T13:49:27;50.80;;;21.87;;
3341;SDS011;1684;50.748;6.154;2022-12-10T13:51:59;50.87;;;21.17;;
3341;SDS011;1684;50.748;6.154;2022-12-10T13:57:21;47.97;;;19.77;;
3341;SDS011;1684;50.748;6.154;2022-12-10T13:59:54;51.20;;;20.10;;
3341;SDS011;1684;50.748;6.154;2022-12-10T14:02:41;49.43;;;20.47;;
3341;SDS011;1684;50.748;6.154;2022-12-10T14:05:19;50.53;;;20.33;;
3341;SDS011;1684;50.748;6.154;2022-12-10T14:07:50;43.53;;;18.27;;
3341;SDS011;1684;50.748;6.154;2022-12-10T14:10:20;45.40;;;20.50;;
3341;SDS011;1684;50.748;6.154;2022-12-10T14:12:50;55.93;;;21.53;;
3341;SDS011;1684;50.748;6.154;2022-12-10T14:15:19;61.10;;;23.27;;
3341;SDS011;1684;50.748;6.154;2022-12-10T14:17:52;47.73;;;21.00;;
3341;SDS011;1684;50.748;6.154;2022-12-10T14:20:22;50.00;;;19.60;;
3341;SDS011;1684;50.748;6.154;2022-12-10T14:22:52;50.33;;;21.43;;
3341;SDS011;1684;50.748;6.154;2022-12-10T14:25:41;55.00;;;22.10;;
3341;SDS011;1684;50.748;6.154;2022-12-10T14:28:11;56.50;;;24.00;;
3341;SDS011;1684;50.748;6.154;2022-12-10T14:30:41;46.17;;;20.70;;
3341;SDS011;1684;50.748;6.154;2022-12-10T14:33:12;51.73;;;21.77;;
3341;SDS011;1684;50.748;6.154;2022-12-10T14:35:40;44.77;;;19.27;;
3341;SDS011;1684;50.748;6.154;2022-12-10T14:38:12;45.43;;;19.00;;
3341;SDS011;1684;50.748;6.154;2022-12-10T14:40:42;40.17;;;19.50;;
3341;SDS011;1684;50.748;6.154;2022-12-10T14:43:11;41.70;;;18.50;;
3341;SDS011;1684;50.748;6.154;2022-12-10T14:45:42;44.73;;;18.57;;
3341;SDS011;1684;50.748;6.154;2022-12-10T14:48:13;45.53;;;17.30;;
3341;SDS011;1684;50.748;6.154;2022-12-10T14:50:44;46.80;;;19.83;;
3341;SDS011;1684;50.748;6.154;2022-12-10T14:53:14;40.67;;;18.17;;
3341;SDS011;1684;50.748;6.154;2022-12-10T14:55:42;44.37;;;21.43;;
3341;SDS011;1684;50.748;6.154;2022-12-10T14:58:13;46.83;;;20.57;;
3341;SDS011;1684;50.748;6.154;2022-12-10T15:00:46;47.87;;;21.10;;
3341;SDS011;1684;50.748;6.154;2022-12-10T15:03:19;47.37;;;21.50;;
3341;SDS011;1684;50.748;6.154;2022-12-10T15:05:53;49.33;;;21.63;;
3341;SDS011;1684;50.748;6.154;2022-12-10T15:08:22;47.03;;;19.63;;
3341;SDS011;1684;50.748;6.154;2022-12-10T15:10:53;45.67;;;19.63;;
3341;SDS011;1684;50.748;6.154;2022-12-10T15:13:23;41.47;;;20.13;;
3341;SDS011;1684;50.748;6.154;2022-12-10T15:15:52;41.60;;;19.73;;
3341;SDS011;1684;50.748;6.154;2022-12-10T15:18:27;39.70;;;19.77;;